Time,TemperatureF,DewpointF,PressureIn,WindDirection,WindDirectionDegrees,WindSpeedMPH,WindSpeedGustMPH,Humidity,HourlyPrecipIn,Conditions,Clouds,dailyrainin,SoftwareType,DateUTC
2013-07-09 00:01:00,71.5,64.6,30.06,NNE,24,9.0,9.0,79,0.00,,,0.00,WeatherDisplay:10.37,2013-07-09 04:01:00,
2013-07-09 00:02:00,71.3,64.4,30.06,NNE,17,8.1,8.1,79,0.00,,,0.00,WeatherDisplay:10.37,2013-07-09 04:02:00,
2013-07-09 00:03:00,71.0,64.5,30.06,NNE,32,4.0,4.0,80,0.00,,,0.00,WeatherDisplay:10.37,2013-07-09 04:03:00,
2013-07-09 00:08:00,70.1,64.0,30.07,NNE,17,6.0,6.0,81,0.01,RA,,0.02,WeatherDisplay:10.37,2013-07-09 04:08:00,
2013-07-09 00:13:00,69.3,63.6,30.06,North,355,6.9,6.9,82,0.14,RA,,0.14,WeatherDisplay:10.37,2013-07-09 04:13:00,
2013-07-09 00:18:00,68.8,63.4,30.07,NNW,347,4.6,4.6,83,0.27,RA,,0.29,WeatherDisplay:10.37,2013-07-09 04:18:00,
2013-07-09 00:23:00,68.4,63.4,30.07,North,10,2.3,2.3,84,0.42,RA,,0.42,WeatherDisplay:10.37,2013-07-09 04:23:00,
2013-07-09 00:28:00,68.3,63.6,30.07,NNE,15,3.5,3.5,85,0.48,RA,,0.48,WeatherDisplay:10.37,2013-07-09 04:28:00,
2013-07-09 00:33:00,68.3,63.6,30.07,NNE,26,0.0,0.0,85,0.52,RA,,0.52,WeatherDisplay:10.37,2013-07-09 04:33:00,
2013-07-09 00:38:00,68.3,63.9,30.07,NNE,27,1.2,0.0,86,0.55,RA,,0.56,WeatherDisplay:10.37,2013-07-09 04:38:00,
2013-07-09 00:43:00,68.2,63.9,30.06,NNE,26,0.0,0.0,86,0.58,RA,,0.58,WeatherDisplay:10.37,2013-07-09 04:43:00,
2013-07-09 00:48:00,68.1,63.8,30.06,NNE,26,2.3,0.0,86,0.66,RA,,0.67,WeatherDisplay:10.37,2013-07-09 04:48:00,
2013-07-09 00:53:00,68.0,63.7,30.06,NNE,30,4.0,4.0,86,0.74,RA,,0.75,WeatherDisplay:10.37,2013-07-09 04:53:00,
2013-07-09 00:58:00,68.0,63.7,30.06,NE,34,3.5,3.5,86,0.80,RA,,0.81,WeatherDisplay:10.37,2013-07-09 04:58:00,
2013-07-09 01:03:00,68.0,63.7,30.06,NE,34,2.3,2.3,86,0.86,RA,,0.87,WeatherDisplay:10.37,2013-07-09 05:03:00,
2013-07-09 01:08:00,68.0,64.0,30.06,NNE,33,2.0,2.0,87,0.94,RA,,0.95,WeatherDisplay:10.37,2013-07-09 05:08:00,
2013-07-09 01:13:00,68.0,64.0,30.05,NE,34,5.0,5.0,87,0.86,RA,,0.96,WeatherDisplay:10.37,2013-07-09 05:13:00,
2013-07-09 01:18:00,68.0,64.0,30.05,NNE,33,3.5,3.5,87,0.71,RA,,0.98,WeatherDisplay:10.37,2013-07-09 05:18:00,
2013-07-09 01:23:00,68.0,64.0,30.05,NNE,33,3.5,3.5,87,0.58,RA,,0.98,WeatherDisplay:10.37,2013-07-09 05:23:00,
2013-07-09 01:28:00,68.0,64.0,30.05,South,182,4.0,4.0,87,0.51,RA,,1.00,WeatherDisplay:10.37,2013-07-09 05:28:00,
2013-07-09 01:33:00,68.0,64.0,30.05,NE,41,3.0,3.0,87,0.51,RA,,1.03,WeatherDisplay:10.37,2013-07-09 05:33:00,
2013-07-09 01:38:00,68.0,64.0,30.04,NNE,33,1.2,0.0,87,0.50,RA,,1.05,WeatherDisplay:10.37,2013-07-09 05:38:00,
2013-07-09 01:43:00,68.0,64.0,30.05,NE,34,0.0,0.0,87,0.52,RA,,1.11,WeatherDisplay:10.37,2013-07-09 05:43:00,
2013-07-09 01:48:00,68.0,64.0,30.05,SW,223,3.0,3.0,87,0.50,RA,,1.17,WeatherDisplay:10.37,2013-07-09 05:48:00,
2013-07-09 01:53:00,68.0,64.0,30.06,SW,222,5.0,5.0,87,0.43,RA,,1.17,WeatherDisplay:10.37,2013-07-09 05:53:00,
2013-07-09 01:58:00,68.0,64.0,30.06,SW,229,2.3,2.3,87,0.36,,,1.17,WeatherDisplay:10.37,2013-07-09 05:58:00,
2013-07-09 02:03:00,68.0,64.0,30.06,SW,218,2.3,2.3,87,0.31,CLR,,1.17,WeatherDisplay:10.37,2013-07-09 06:03:00,
2013-07-09 02:08:00,68.0,64.3,30.06,SW,219,3.5,3.5,88,0.22,CLR,,1.17,WeatherDisplay:10.37,2013-07-09 06:08:00,
2013-07-09 02:13:00,68.1,64.4,30.06,SW,227,4.0,4.0,88,0.21,CLR,,1.17,WeatherDisplay:10.37,2013-07-09 06:13:00,
2013-07-09 02:18:00,68.0,64.3,30.06,SSW,196,6.0,6.0,88,0.19,CLR,,1.17,WeatherDisplay:10.37,2013-07-09 06:18:00,
2013-07-09 02:23:00,68.0,64.3,30.05,South,186,7.0,7.0,88,0.19,CLR,,1.17,WeatherDisplay:10.37,2013-07-09 06:23:00,
2013-07-09 02:28:00,67.9,64.2,30.05,SSW,202,7.0,7.0,88,0.18,CLR,,1.17,WeatherDisplay:10.37,2013-07-09 06:28:00,
2013-07-09 02:33:00,67.9,64.2,30.05,SSW,194,5.0,5.0,88,0.14,CLR,,1.17,WeatherDisplay:10.37,2013-07-09 06:33:00,
2013-07-09 02:38:00,67.9,64.2,30.05,South,186,7.0,7.0,88,0.12,CLR,,1.17,WeatherDisplay:10.37,2013-07-09 06:38:00,
2013-07-09 02:43:00,67.8,64.1,30.05,SSW,199,8.1,8.1,88,0.07,CLR,,1.17,WeatherDisplay:10.37,2013-07-09 06:43:00,
2013-07-09 02:48:00,67.8,64.1,30.04,SSW,198,5.0,5.0,88,0.01,CLR,,1.17,WeatherDisplay:10.37,2013-07-09 06:48:00,
2013-07-09 02:53:00,67.7,64.0,30.04,SSE,168,2.3,2.3,88,0.00,CLR,,1.17,WeatherDisplay:10.37,2013-07-09 06:53:00,
2013-07-09 02:58:00,67.7,64.0,30.04,SE,146,3.5,3.5,88,0.00,CLR,,1.17,WeatherDisplay:10.37,2013-07-09 06:58:00,
2013-07-09 03:03:00,67.7,64.0,30.03,SSE,151,0.0,0.0,88,0.00,CLR,,1.17,WeatherDisplay:10.37,2013-07-09 07:03:00,
2013-07-09 03:08:00,67.7,64.0,30.03,South,180,5.0,5.0,88,0.00,CLR,,1.17,WeatherDisplay:10.37,2013-07-09 07:08:00,
2013-07-09 03:13:00,67.7,64.0,30.03,South,184,7.0,7.0,88,0.00,CLR,,1.17,WeatherDisplay:10.37,2013-07-09 07:13:00,
2013-07-09 03:18:00,67.8,64.1,30.03,South,184,4.0,4.0,88,0.00,CLR,,1.17,WeatherDisplay:10.37,2013-07-09 07:18:00,
2013-07-09 03:23:00,67.7,64.0,30.03,SSW,194,7.0,7.0,88,0.00,CLR,,1.17,WeatherDisplay:10.37,2013-07-09 07:23:00,
2013-07-09 03:28:00,67.7,64.0,30.03,South,178,8.1,8.1,88,0.00,CLR,,1.17,WeatherDisplay:10.37,2013-07-09 07:28:00,
2013-07-09 03:33:00,67.7,64.0,30.03,South,189,9.2,9.2,88,0.00,CLR,,1.17,WeatherDisplay:10.37,2013-07-09 07:33:00,
2013-07-09 03:38:00,67.7,64.0,30.03,SSW,194,7.0,7.0,88,0.00,CLR,,1.17,WeatherDisplay:10.37,2013-07-09 07:38:00,
2013-07-09 03:43:00,67.7,64.0,30.03,SSW,193,7.0,7.0,88,0.00,CLR,,1.17,WeatherDisplay:10.37,2013-07-09 07:43:00,
2013-07-09 03:48:00,67.6,63.9,30.03,SSW,200,8.1,8.1,88,0.00,CLR,,1.17,WeatherDisplay:10.37,2013-07-09 07:48:00,
2013-07-09 03:53:00,67.6,63.9,30.03,SSE,153,8.1,8.1,88,0.00,CLR,,1.17,WeatherDisplay:10.37,2013-07-09 07:53:00,
2013-07-09 03:58:00,67.6,63.9,30.03,SSW,210,7.0,7.0,88,0.00,CLR,,1.17,WeatherDisplay:10.37,2013-07-09 07:58:00,
2013-07-09 04:03:00,67.5,63.8,30.03,SSW,192,9.2,9.2,88,0.00,CLR,,1.17,WeatherDisplay:10.37,2013-07-09 08:03:00,
2013-07-09 04:08:00,67.5,63.8,30.03,SSW,194,7.0,7.0,88,0.00,CLR,,1.17,WeatherDisplay:10.37,2013-07-09 08:08:00,
2013-07-09 04:13:00,67.4,63.7,30.03,South,180,9.2,9.2,88,0.00,CLR,,1.17,WeatherDisplay:10.37,2013-07-09 08:13:00,
2013-07-09 04:18:00,67.4,63.7,30.03,SSW,197,7.0,7.0,88,0.00,CLR,,1.17,WeatherDisplay:10.37,2013-07-09 08:18:00,
2013-07-09 04:23:00,67.4,63.7,30.03,SSW,196,9.0,9.0,88,0.00,CLR,,1.17,WeatherDisplay:10.37,2013-07-09 08:23:00,
2013-07-09 04:28:00,67.4,63.7,30.03,SSW,202,8.0,8.0,88,0.00,CLR,,1.17,WeatherDisplay:10.37,2013-07-09 08:28:00,
2013-07-09 04:33:00,67.4,63.7,30.03,SSW,200,10.4,10.4,88,0.00,CLR,,1.17,WeatherDisplay:10.37,2013-07-09 08:33:00,
2013-07-09 04:38:00,67.4,63.7,30.03,South,191,9.2,9.2,88,0.00,CLR,,1.17,WeatherDisplay:10.37,2013-07-09 08:38:00,
2013-07-09 04:43:00,67.4,63.7,30.03,South,188,7.0,7.0,88,0.00,CLR,,1.17,WeatherDisplay:10.37,2013-07-09 08:43:00,
2013-07-09 04:48:00,67.3,63.6,30.03,SW,218,8.0,8.0,88,0.00,CLR,,1.17,WeatherDisplay:10.37,2013-07-09 08:48:00,
2013-07-09 04:53:00,67.2,63.5,30.03,SSW,195,7.0,7.0,88,0.00,CLR,,1.17,WeatherDisplay:10.37,2013-07-09 08:53:00,
2013-07-09 04:58:00,67.2,63.5,30.03,SSW,200,11.0,11.0,88,0.00,CLR,,1.17,WeatherDisplay:10.37,2013-07-09 08:58:00,
2013-07-09 05:03:00,67.2,63.5,30.03,South,188,7.0,7.0,88,0.00,CLR,,1.17,WeatherDisplay:10.37,2013-07-09 09:03:00,
2013-07-09 05:08:00,67.3,63.6,30.03,SW,228,9.2,9.2,88,0.00,CLR,,1.17,WeatherDisplay:10.37,2013-07-09 09:08:00,
2013-07-09 05:13:00,67.4,63.7,30.03,SSW,198,6.0,6.0,88,0.00,CLR,,1.17,WeatherDisplay:10.37,2013-07-09 09:13:00,
2013-07-09 05:18:00,67.4,63.7,30.03,SSW,193,8.1,8.1,88,0.00,CLR,,1.17,WeatherDisplay:10.37,2013-07-09 09:18:00,
2013-07-09 05:23:00,67.5,63.8,30.03,SW,234,8.1,8.1,88,0.00,CLR,,1.17,WeatherDisplay:10.37,2013-07-09 09:23:00,
2013-07-09 05:28:00,67.6,63.9,30.03,SSW,208,9.0,9.0,88,0.00,CLR,,1.17,WeatherDisplay:10.37,2013-07-09 09:28:00,
2013-07-09 05:33:00,67.6,63.9,30.03,SW,229,6.9,6.9,88,0.00,CLR,,1.17,WeatherDisplay:10.37,2013-07-09 09:33:00,
2013-07-09 05:38:00,67.7,64.0,30.03,WSW,250,11.5,11.5,88,0.01,RA,,1.18,WeatherDisplay:10.37,2013-07-09 09:38:00,
2013-07-09 05:43:00,67.7,64.0,30.03,SW,218,10.4,10.4,88,0.01,RA,,1.18,WeatherDisplay:10.37,2013-07-09 09:43:00,
2013-07-09 05:48:00,67.8,64.1,30.02,SW,236,9.0,9.0,88,0.03,RA,,1.20,WeatherDisplay:10.37,2013-07-09 09:48:00,
2013-07-09 05:53:00,67.8,64.1,30.02,SW,220,7.0,7.0,88,0.03,RA,,1.20,WeatherDisplay:10.37,2013-07-09 09:53:00,
2013-07-09 05:58:00,67.8,64.1,30.02,SSW,208,6.0,6.0,88,0.04,RA,,1.21,WeatherDisplay:10.37,2013-07-09 09:58:00,
2013-07-09 06:03:00,67.9,64.2,30.02,SSW,198,8.1,8.1,88,0.04,RA,,1.21,WeatherDisplay:10.37,2013-07-09 10:03:00,
2013-07-09 06:08:00,67.8,64.1,30.01,South,188,8.0,8.0,88,0.04,,,1.21,WeatherDisplay:10.37,2013-07-09 10:08:00,
2013-07-09 06:13:00,67.8,64.1,30.01,SSW,206,6.0,6.0,88,0.04,CLR,,1.21,WeatherDisplay:10.37,2013-07-09 10:13:00,
2013-07-09 06:18:00,67.9,64.2,30.01,SSW,196,7.0,7.0,88,0.04,CLR,,1.21,WeatherDisplay:10.37,2013-07-09 10:18:00,
2013-07-09 06:23:00,67.9,64.2,30.01,SSW,210,8.1,8.1,88,0.04,CLR,,1.21,WeatherDisplay:10.37,2013-07-09 10:23:00,
2013-07-09 06:28:00,67.9,64.2,30.01,SSW,195,7.0,7.0,88,0.04,CLR,,1.21,WeatherDisplay:10.37,2013-07-09 10:28:00,
2013-07-09 06:33:00,67.8,64.1,30.01,South,184,8.1,8.1,88,0.04,CLR,,1.21,WeatherDisplay:10.37,2013-07-09 10:33:00,
2013-07-09 06:38:00,67.8,64.1,30.01,South,189,7.0,7.0,88,0.03,CLR,,1.21,WeatherDisplay:10.37,2013-07-09 10:38:00,
2013-07-09 06:43:00,67.9,64.2,30.01,South,187,8.0,8.0,88,0.03,CLR,,1.21,WeatherDisplay:10.37,2013-07-09 10:43:00,
2013-07-09 06:48:00,67.9,64.2,30.01,South,183,8.1,8.1,88,0.02,CLR,,1.21,WeatherDisplay:10.37,2013-07-09 10:48:00,
2013-07-09 06:53:00,67.9,64.2,30.01,SSW,194,9.2,9.2,88,0.01,CLR,,1.21,WeatherDisplay:10.37,2013-07-09 10:53:00,
2013-07-09 06:58:00,67.9,64.2,30.01,SW,214,5.0,5.0,88,0.00,CLR,,1.21,WeatherDisplay:10.37,2013-07-09 10:58:00,
2013-07-09 07:03:00,68.0,64.3,30.01,SSW,207,7.0,7.0,88,0.00,CLR,,1.21,WeatherDisplay:10.37,2013-07-09 11:03:00,
2013-07-09 07:08:00,67.9,64.2,30.02,SSW,206,7.0,7.0,88,0.00,CLR,,1.22,WeatherDisplay:10.37,2013-07-09 11:08:00,
2013-07-09 07:13:00,67.9,64.2,30.01,SSW,196,8.1,8.1,88,0.01,RA,,1.22,WeatherDisplay:10.37,2013-07-09 11:13:00,
2013-07-09 07:18:00,67.9,64.2,30.01,SSW,200,9.2,9.2,88,0.01,RA,,1.22,WeatherDisplay:10.37,2013-07-09 11:18:00,
2013-07-09 07:23:00,67.9,64.2,30.01,SSW,192,9.0,9.0,88,0.01,CLR,,1.22,WeatherDisplay:10.37,2013-07-09 11:23:00,
2013-07-09 07:28:00,67.9,64.2,30.01,SSW,195,9.2,9.2,88,0.02,RA,,1.23,WeatherDisplay:10.37,2013-07-09 11:28:00,
2013-07-09 07:33:00,68.0,64.3,30.01,SSW,200,11.5,11.5,88,0.03,RA,,1.24,WeatherDisplay:10.37,2013-07-09 11:33:00,
2013-07-09 07:38:00,68.0,64.3,30.01,SSW,213,8.1,8.1,88,0.03,RA,,1.24,WeatherDisplay:10.37,2013-07-09 11:38:00,
2013-07-09 07:43:00,68.1,64.4,30.00,SSW,207,12.0,12.0,88,0.03,CLR,,1.24,WeatherDisplay:10.37,2013-07-09 11:43:00,
2013-07-09 07:48:00,68.2,64.5,30.01,SSW,207,9.0,9.0,88,0.04,RA,,1.25,WeatherDisplay:10.37,2013-07-09 11:48:00,
2013-07-09 07:53:00,68.2,64.5,30.00,SSW,195,9.2,9.2,88,0.07,RA,,1.28,WeatherDisplay:10.37,2013-07-09 11:53:00,
2013-07-09 07:58:00,68.3,64.6,30.00,SW,230,10.0,10.0,88,0.07,RA,,1.28,WeatherDisplay:10.37,2013-07-09 11:58:00,
2013-07-09 08:03:00,68.3,64.6,30.00,SW,230,14.0,14.0,88,0.07,CLR,,1.28,WeatherDisplay:10.37,2013-07-09 12:03:00,
2013-07-09 08:08:00,68.5,64.8,30.01,South,188,6.0,6.0,88,0.08,RA,,1.29,WeatherDisplay:10.37,2013-07-09 12:08:00,
2013-07-09 08:13:00,68.5,64.8,30.01,South,181,7.0,7.0,88,0.08,RA,,1.30,WeatherDisplay:10.37,2013-07-09 12:13:00,
2013-07-09 08:18:00,68.5,64.8,30.01,SW,222,6.0,6.0,88,0.09,RA,,1.31,WeatherDisplay:10.37,2013-07-09 12:18:00,
2013-07-09 08:23:00,68.6,64.9,30.01,SSW,210,7.0,7.0,88,0.09,RA,,1.31,WeatherDisplay:10.37,2013-07-09 12:23:00,
2013-07-09 08:28:00,68.7,65.0,30.01,SSW,211,6.0,6.0,88,0.08,CLR,,1.31,WeatherDisplay:10.37,2013-07-09 12:28:00,
2013-07-09 08:33:00,68.8,65.1,30.01,SSW,198,10.0,10.0,88,0.07,CLR,,1.31,WeatherDisplay:10.37,2013-07-09 12:33:00,
2013-07-09 08:38:00,68.8,65.1,30.01,SSW,206,7.0,7.0,88,0.07,CLR,,1.31,WeatherDisplay:10.37,2013-07-09 12:38:00,
2013-07-09 08:43:00,69.1,65.4,30.02,SW,223,7.0,7.0,88,0.07,CLR,,1.31,WeatherDisplay:10.37,2013-07-09 12:43:00,
2013-07-09 08:48:00,69.1,65.4,30.01,SW,224,9.0,9.0,88,0.06,CLR,,1.31,WeatherDisplay:10.37,2013-07-09 12:48:00,
2013-07-09 08:53:00,69.1,65.4,30.01,WSW,241,9.2,9.2,88,0.04,RA,,1.32,WeatherDisplay:10.37,2013-07-09 12:53:00,
2013-07-09 08:58:00,69.2,65.5,30.01,SW,234,10.4,10.4,88,0.04,RA,,1.32,WeatherDisplay:10.37,2013-07-09 12:58:00,
2013-07-09 09:03:00,69.7,66.0,30.01,SSW,207,9.2,9.2,88,0.04,CLR,,1.32,WeatherDisplay:10.37,2013-07-09 13:03:00,
2013-07-09 09:08:00,70.1,66.4,30.01,SW,233,10.0,10.0,88,0.04,CLR,,1.32,WeatherDisplay:10.37,2013-07-09 13:08:00,
2013-07-09 09:13:00,70.3,66.6,30.00,SW,221,13.0,13.0,88,0.02,CLR,,1.32,WeatherDisplay:10.37,2013-07-09 13:13:00,
2013-07-09 09:18:00,70.3,66.6,30.00,WSW,237,8.1,8.1,88,0.01,CLR,,1.32,WeatherDisplay:10.37,2013-07-09 13:18:00,
2013-07-09 09:23:00,70.4,66.7,30.01,SW,234,12.0,12.0,88,0.01,CLR,,1.32,WeatherDisplay:10.37,2013-07-09 13:23:00,
2013-07-09 09:28:00,70.4,66.7,30.00,SW,229,14.0,14.0,88,0.01,CLR,,1.32,WeatherDisplay:10.37,2013-07-09 13:28:00,
2013-07-09 09:33:00,70.5,66.8,30.00,WSW,244,16.1,16.1,88,0.01,CLR,,1.32,WeatherDisplay:10.37,2013-07-09 13:33:00,
2013-07-09 09:38:00,70.6,66.9,30.01,SW,234,15.0,15.0,88,0.01,CLR,,1.32,WeatherDisplay:10.37,2013-07-09 13:38:00,
2013-07-09 09:43:00,70.6,66.9,30.01,SSW,207,14.0,14.0,88,0.01,CLR,,1.32,WeatherDisplay:10.37,2013-07-09 13:43:00,
2013-07-09 09:48:00,70.4,66.7,30.01,WSW,255,14.0,14.0,88,0.01,CLR,,1.32,WeatherDisplay:10.37,2013-07-09 13:48:00,
2013-07-09 09:53:00,70.3,66.2,30.01,SW,231,12.0,12.0,87,0.00,CLR,,1.32,WeatherDisplay:10.37,2013-07-09 13:53:00,
2013-07-09 09:58:00,70.1,66.0,30.01,WSW,240,12.0,12.0,87,0.00,CLR,,1.32,WeatherDisplay:10.37,2013-07-09 13:58:00,
2013-07-09 10:03:00,70.2,66.1,30.01,West,263,11.5,11.5,87,0.00,CLR,,1.32,WeatherDisplay:10.37,2013-07-09 14:03:00,
2013-07-09 10:08:00,70.3,66.2,30.01,West,260,14.0,14.0,87,0.00,CLR,,1.32,WeatherDisplay:10.37,2013-07-09 14:08:00,
2013-07-09 10:13:00,70.4,66.3,30.01,SW,234,16.1,16.1,87,0.00,CLR,,1.32,WeatherDisplay:10.37,2013-07-09 14:13:00,
2013-07-09 10:18:00,70.6,66.5,30.01,SW,234,14.0,14.0,87,0.00,CLR,,1.32,WeatherDisplay:10.37,2013-07-09 14:18:00,
2013-07-09 10:23:00,70.6,66.5,30.01,West,261,17.3,17.3,87,0.00,CLR,,1.32,WeatherDisplay:10.37,2013-07-09 14:23:00,
2013-07-09 10:28:00,70.7,66.6,30.01,SW,236,13.0,13.0,87,0.00,CLR,,1.32,WeatherDisplay:10.37,2013-07-09 14:28:00,
2013-07-09 10:33:00,70.8,66.4,30.01,WSW,237,15.0,15.0,86,0.00,CLR,,1.32,WeatherDisplay:10.37,2013-07-09 14:33:00,
2013-07-09 10:38:00,70.9,66.5,30.01,SW,230,18.0,18.0,86,0.00,CLR,,1.32,WeatherDisplay:10.37,2013-07-09 14:38:00,
2013-07-09 10:43:00,71.4,67.0,30.01,SW,236,11.5,11.5,86,0.00,CLR,,1.32,WeatherDisplay:10.37,2013-07-09 14:43:00,
2013-07-09 10:48:00,71.6,67.2,30.01,West,272,15.0,15.0,86,0.00,CLR,,1.32,WeatherDisplay:10.37,2013-07-09 14:48:00,
2013-07-09 10:53:00,71.7,66.9,30.01,SW,236,15.0,15.0,85,0.00,CLR,,1.32,WeatherDisplay:10.37,2013-07-09 14:53:00,
2013-07-09 10:58:00,71.8,67.0,30.01,SW,225,18.0,18.0,85,0.01,RA,,1.33,WeatherDisplay:10.37,2013-07-09 14:58:00,
2013-07-09 11:03:00,71.8,66.7,30.01,SW,234,13.0,13.0,84,0.01,RA,,1.33,WeatherDisplay:10.37,2013-07-09 15:03:00,
2013-07-09 11:08:00,72.3,67.2,30.01,SW,228,15.0,15.0,84,0.01,CLR,,1.33,WeatherDisplay:10.37,2013-07-09 15:08:00,
2013-07-09 11:13:00,73.1,68.0,30.01,SW,223,18.4,18.4,84,0.01,CLR,,1.33,WeatherDisplay:10.37,2013-07-09 15:13:00,
2013-07-09 11:18:00,73.9,68.1,30.01,WSW,252,18.4,18.4,82,0.01,CLR,,1.33,WeatherDisplay:10.37,2013-07-09 15:18:00,
2013-07-09 11:23:00,73.8,68.0,30.01,WSW,244,16.1,16.1,82,0.01,CLR,,1.33,WeatherDisplay:10.37,2013-07-09 15:23:00,
2013-07-09 11:28:00,73.9,68.1,30.01,SW,215,18.0,18.0,82,0.01,CLR,,1.33,WeatherDisplay:10.37,2013-07-09 15:28:00,
2013-07-09 11:33:00,74.0,67.8,30.01,WSW,257,21.0,21.0,81,0.01,CLR,,1.33,WeatherDisplay:10.37,2013-07-09 15:33:00,
2013-07-09 11:38:00,74.0,67.8,30.01,SW,226,18.4,18.4,81,0.01,CLR,,1.33,WeatherDisplay:10.37,2013-07-09 15:38:00,
2013-07-09 11:43:00,74.0,67.4,30.00,West,262,18.4,18.4,80,0.01,CLR,,1.33,WeatherDisplay:10.37,2013-07-09 15:43:00,
2013-07-09 11:48:00,74.0,67.8,30.01,SW,232,12.0,12.0,81,0.01,CLR,,1.33,WeatherDisplay:10.37,2013-07-09 15:48:00,
2013-07-09 11:53:00,74.1,67.9,30.00,WSW,246,16.0,16.0,81,0.01,CLR,,1.33,WeatherDisplay:10.37,2013-07-09 15:53:00,
2013-07-09 11:58:00,74.2,68.0,30.00,West,261,12.0,12.0,81,0.00,CLR,,1.33,WeatherDisplay:10.37,2013-07-09 15:58:00,
2013-07-09 12:03:00,75.0,68.8,30.00,SW,222,14.0,14.0,81,0.00,CLR,,1.33,WeatherDisplay:10.37,2013-07-09 16:03:00,
2013-07-09 12:08:00,75.5,68.9,30.00,SW,232,11.5,11.5,80,0.00,CLR,,1.33,WeatherDisplay:10.37,2013-07-09 16:08:00,
2013-07-09 12:13:00,76.0,69.4,30.00,West,275,17.0,17.0,80,0.00,CLR,,1.33,WeatherDisplay:10.37,2013-07-09 16:13:00,
2013-07-09 12:18:00,76.2,69.2,30.00,WSW,257,16.1,16.1,79,0.00,CLR,,1.33,WeatherDisplay:10.37,2013-07-09 16:18:00,
2013-07-09 12:23:00,76.6,69.2,30.00,West,276,15.0,15.0,78,0.00,CLR,,1.33,WeatherDisplay:10.37,2013-07-09 16:23:00,
2013-07-09 12:28:00,76.7,69.7,30.00,West,268,13.0,13.0,79,0.00,CLR,,1.33,WeatherDisplay:10.37,2013-07-09 16:28:00,
2013-07-09 12:33:00,77.3,70.3,30.00,WSW,242,14.0,14.0,79,0.00,CLR,,1.33,WeatherDisplay:10.37,2013-07-09 16:33:00,
2013-07-09 12:38:00,77.1,69.3,30.00,SW,233,11.5,11.5,77,0.00,CLR,,1.33,WeatherDisplay:10.37,2013-07-09 16:38:00,
2013-07-09 12:43:00,77.1,69.7,30.00,WSW,257,12.7,12.7,78,0.00,CLR,,1.33,WeatherDisplay:10.37,2013-07-09 16:43:00,
2013-07-09 12:48:00,76.7,69.3,30.00,West,278,15.0,15.0,78,0.00,CLR,,1.33,WeatherDisplay:10.37,2013-07-09 16:48:00,
2013-07-09 12:53:00,76.8,69.8,30.00,WSW,257,9.2,9.2,79,0.00,CLR,,1.33,WeatherDisplay:10.37,2013-07-09 16:53:00,
2013-07-09 12:58:00,76.9,69.5,30.00,WSW,254,12.7,12.7,78,0.00,CLR,,1.33,WeatherDisplay:10.37,2013-07-09 16:58:00,
2013-07-09 13:03:00,76.7,69.3,30.00,West,280,10.4,10.4,78,0.00,CLR,,1.33,WeatherDisplay:10.37,2013-07-09 17:03:00,
2013-07-09 13:08:00,76.8,69.8,30.00,WNW,294,12.0,12.0,79,0.00,CLR,,1.33,WeatherDisplay:10.37,2013-07-09 17:08:00,
2013-07-09 13:13:00,77.1,69.7,30.00,West,264,11.5,11.5,78,0.00,CLR,,1.33,WeatherDisplay:10.37,2013-07-09 17:13:00,
2013-07-09 13:18:00,77.4,70.0,30.00,WSW,255,9.2,9.2,78,0.00,CLR,,1.33,WeatherDisplay:10.37,2013-07-09 17:18:00,
2013-07-09 13:23:00,77.7,70.3,29.99,WSW,254,11.0,11.0,78,0.00,CLR,,1.33,WeatherDisplay:10.37,2013-07-09 17:23:00,
2013-07-09 13:28:00,77.7,69.9,30.00,WSW,238,9.2,9.2,77,0.00,CLR,,1.33,WeatherDisplay:10.37,2013-07-09 17:28:00,
2013-07-09 13:33:00,77.7,69.9,30.00,SW,232,11.5,11.5,77,0.00,CLR,,1.33,WeatherDisplay:10.37,2013-07-09 17:33:00,
2013-07-09 13:38:00,77.5,69.7,29.99,West,270,9.2,9.2,77,0.00,CLR,,1.33,WeatherDisplay:10.37,2013-07-09 17:38:00,
2013-07-09 13:43:00,77.3,69.5,30.00,West,265,5.0,5.0,77,0.00,CLR,,1.33,WeatherDisplay:10.37,2013-07-09 17:43:00,
2013-07-09 13:48:00,77.3,70.3,29.99,WSW,252,8.0,8.0,79,0.00,CLR,,1.33,WeatherDisplay:10.37,2013-07-09 17:48:00,
2013-07-09 13:53:00,76.9,69.9,30.00,WSW,257,9.2,9.2,79,0.00,CLR,,1.33,WeatherDisplay:10.37,2013-07-09 17:53:00,
2013-07-09 13:58:00,77.0,70.0,30.00,WSW,245,8.0,8.0,79,0.00,CLR,,1.33,WeatherDisplay:10.37,2013-07-09 17:58:00,
2013-07-09 14:03:00,77.1,70.1,30.00,SW,218,6.0,6.0,79,0.00,CLR,,1.33,WeatherDisplay:10.37,2013-07-09 18:03:00,
2013-07-09 14:08:00,77.2,70.2,30.00,West,274,9.0,9.0,79,0.00,CLR,,1.33,WeatherDisplay:10.37,2013-07-09 18:08:00,
2013-07-09 14:13:00,77.3,70.3,30.00,WSW,240,9.0,9.0,79,0.00,CLR,,1.33,WeatherDisplay:10.37,2013-07-09 18:13:00,
2013-07-09 14:18:00,77.2,69.8,30.00,West,265,8.1,8.1,78,0.00,CLR,,1.33,WeatherDisplay:10.37,2013-07-09 18:18:00,
2013-07-09 14:23:00,77.2,70.2,30.00,WSW,253,8.1,8.1,79,0.00,CLR,,1.33,WeatherDisplay:10.37,2013-07-09 18:23:00,
2013-07-09 14:28:00,77.3,70.3,30.00,WSW,252,7.0,7.0,79,0.00,CLR,,1.33,WeatherDisplay:10.37,2013-07-09 18:28:00,
2013-07-09 14:33:00,77.2,70.2,30.00,West,262,9.0,9.0,79,0.00,CLR,,1.33,WeatherDisplay:10.37,2013-07-09 18:33:00,
2013-07-09 14:38:00,77.6,70.9,29.99,WSW,246,7.0,7.0,80,0.00,CLR,,1.33,WeatherDisplay:10.37,2013-07-09 18:38:00,
2013-07-09 14:43:00,78.0,71.0,29.99,WSW,245,6.0,6.0,79,0.00,CLR,,1.33,WeatherDisplay:10.37,2013-07-09 18:43:00,
2013-07-09 14:48:00,78.8,71.4,29.99,West,261,10.0,10.0,78,0.00,CLR,,1.33,WeatherDisplay:10.37,2013-07-09 18:48:00,
2013-07-09 14:53:00,78.7,70.9,29.99,WSW,246,8.1,8.1,77,0.00,CLR,,1.33,WeatherDisplay:10.37,2013-07-09 18:53:00,
2013-07-09 14:58:00,78.7,70.9,29.98,SW,225,6.0,6.0,77,0.00,CLR,,1.33,WeatherDisplay:10.37,2013-07-09 18:58:00,
2013-07-09 15:03:00,79.6,71.8,29.98,WSW,241,11.0,11.0,77,0.00,CLR,,1.33,WeatherDisplay:10.37,2013-07-09 19:03:00,
2013-07-09 15:08:00,79.7,71.5,29.98,West,264,11.5,11.5,76,0.00,CLR,,1.33,WeatherDisplay:10.37,2013-07-09 19:08:00,
2013-07-09 15:13:00,79.7,71.1,29.98,WSW,257,11.5,11.5,75,0.00,CLR,,1.33,WeatherDisplay:10.37,2013-07-09 19:13:00,
2013-07-09 15:18:00,80.5,71.8,29.98,West,264,8.1,8.1,75,0.00,CLR,,1.33,WeatherDisplay:10.37,2013-07-09 19:18:00,
2013-07-09 15:23:00,80.7,72.0,29.98,West,268,8.0,8.0,75,0.00,CLR,,1.33,WeatherDisplay:10.37,2013-07-09 19:23:00,
2013-07-09 15:28:00,81.0,71.9,29.98,SW,223,15.0,15.0,74,0.00,CLR,,1.33,WeatherDisplay:10.37,2013-07-09 19:28:00,
2013-07-09 15:33:00,80.3,71.3,29.98,SW,217,9.0,9.0,74,0.00,CLR,,1.33,WeatherDisplay:10.37,2013-07-09 19:33:00,
2013-07-09 15:38:00,80.2,71.6,29.97,SW,218,13.0,13.0,75,0.00,CLR,,1.33,WeatherDisplay:10.37,2013-07-09 19:38:00,
2013-07-09 15:43:00,80.5,71.8,29.97,SW,230,11.5,11.5,75,0.00,CLR,,1.33,WeatherDisplay:10.37,2013-07-09 19:43:00,
2013-07-09 15:48:00,81.0,72.3,29.97,SW,226,11.5,11.5,75,0.00,CLR,,1.33,WeatherDisplay:10.37,2013-07-09 19:48:00,
2013-07-09 15:53:00,81.3,72.6,29.97,SSW,213,12.0,12.0,75,0.00,CLR,,1.33,WeatherDisplay:10.37,2013-07-09 19:53:00,
2013-07-09 15:58:00,81.8,71.9,29.96,SW,214,10.4,10.4,72,0.00,CLR,,1.33,WeatherDisplay:10.37,2013-07-09 19:58:00,
2013-07-09 16:03:00,81.6,72.5,29.96,WSW,248,13.0,13.0,74,0.00,CLR,,1.33,WeatherDisplay:10.37,2013-07-09 20:03:00,
2013-07-09 16:08:00,81.2,72.1,29.96,SW,229,12.0,12.0,74,0.00,CLR,,1.33,WeatherDisplay:10.37,2013-07-09 20:08:00,
2013-07-09 16:13:00,80.8,72.1,29.95,SW,231,9.2,9.2,75,0.00,CLR,,1.33,WeatherDisplay:10.37,2013-07-09 20:13:00,
2013-07-09 16:18:00,81.0,72.3,29.95,WSW,242,7.0,7.0,75,0.00,CLR,,1.33,WeatherDisplay:10.37,2013-07-09 20:18:00,
2013-07-09 16:23:00,81.6,72.1,29.95,West,264,8.0,8.0,73,0.00,CLR,,1.33,WeatherDisplay:10.37,2013-07-09 20:23:00,
2013-07-09 16:28:00,81.8,72.3,29.94,SSW,207,9.0,9.0,73,0.00,CLR,,1.33,WeatherDisplay:10.37,2013-07-09 20:28:00,
2013-07-09 16:30:00,82.0,72.9,29.94,WSW,242,8.0,10.0,74,0.00,CLR,CLR,1.33,WeatherDisplay:10.37,2013-07-09 20:30:00,
2013-07-09 16:35:00,82.5,73.0,29.94,WSW,247,10.0,10.0,73,0.00,CLR,,1.33,WeatherDisplay:10.37,2013-07-09 20:35:00,
2013-07-09 16:40:00,82.3,72.4,29.94,WSW,240,8.1,8.1,72,0.00,CLR,,1.33,WeatherDisplay:10.37,2013-07-09 20:40:00,
2013-07-09 16:45:00,81.9,72.0,29.93,SSW,198,8.0,8.0,72,0.00,CLR,,1.33,WeatherDisplay:10.37,2013-07-09 20:45:00,
2013-07-09 16:50:00,81.9,72.4,29.93,WSW,244,7.0,7.0,73,0.00,CLR,,1.33,WeatherDisplay:10.37,2013-07-09 20:50:00,
2013-07-09 16:55:00,82.0,72.5,29.93,SW,229,9.2,9.2,73,0.00,CLR,,1.33,WeatherDisplay:10.37,2013-07-09 20:55:00,
2013-07-09 17:00:00,81.8,72.3,29.93,SW,222,7.0,7.0,73,0.00,CLR,,1.33,WeatherDisplay:10.37,2013-07-09 21:00:00,
2013-07-09 17:05:00,81.4,72.3,29.93,SSW,213,11.5,11.5,74,0.00,CLR,,1.33,WeatherDisplay:10.37,2013-07-09 21:05:00,
2013-07-09 17:10:00,80.8,72.1,29.92,SSW,213,8.0,8.0,75,0.00,CLR,,1.33,WeatherDisplay:10.37,2013-07-09 21:10:00,
2013-07-09 17:15:00,80.9,71.8,29.93,SW,218,11.5,11.5,74,0.00,CLR,,1.33,WeatherDisplay:10.37,2013-07-09 21:15:00,
2013-07-09 17:20:00,81.4,72.3,29.93,SW,226,12.7,12.7,74,0.00,CLR,,1.33,WeatherDisplay:10.37,2013-07-09 21:20:00,
2013-07-09 17:25:00,81.7,72.6,29.93,SW,232,10.4,10.4,74,0.00,CLR,,1.33,WeatherDisplay:10.37,2013-07-09 21:25:00,
2013-07-09 17:30:00,81.8,72.7,29.93,SW,220,9.2,9.2,74,0.00,CLR,,1.33,WeatherDisplay:10.37,2013-07-09 21:30:00,
2013-07-09 17:35:00,82.1,73.0,29.93,SW,234,12.0,12.0,74,0.00,CLR,,1.33,WeatherDisplay:10.37,2013-07-09 21:35:00,
2013-07-09 17:40:00,81.7,72.6,29.93,South,187,13.0,13.0,74,0.00,CLR,,1.33,WeatherDisplay:10.37,2013-07-09 21:40:00,
2013-07-09 17:45:00,81.5,72.0,29.93,WSW,240,11.5,11.5,73,0.00,CLR,,1.33,WeatherDisplay:10.37,2013-07-09 21:45:00,
2013-07-09 17:50:00,81.5,72.4,29.93,SSW,206,10.4,10.4,74,0.00,CLR,,1.33,WeatherDisplay:10.37,2013-07-09 21:50:00,
2013-07-09 17:55:00,81.6,72.9,29.92,SW,230,8.1,8.1,75,0.00,CLR,,1.33,WeatherDisplay:10.37,2013-07-09 21:55:00,
2013-07-09 18:00:00,81.4,72.3,29.92,SW,236,12.0,12.0,74,0.00,CLR,,1.33,WeatherDisplay:10.37,2013-07-09 22:00:00,
2013-07-09 18:05:00,81.5,72.4,29.92,SW,216,11.5,11.5,74,0.00,CLR,,1.33,WeatherDisplay:10.37,2013-07-09 22:05:00,
2013-07-09 18:10:00,81.5,72.4,29.92,WSW,238,10.4,10.4,74,0.00,CLR,,1.33,WeatherDisplay:10.37,2013-07-09 22:10:00,
2013-07-09 18:15:00,81.5,72.4,29.92,WSW,243,11.5,11.5,74,0.00,CLR,,1.33,WeatherDisplay:10.37,2013-07-09 22:15:00,
2013-07-09 18:20:00,81.3,72.2,29.92,SW,214,9.2,9.2,74,0.00,CLR,,1.33,WeatherDisplay:10.37,2013-07-09 22:20:00,
2013-07-09 18:25:00,81.2,72.1,29.92,SW,227,9.2,9.2,74,0.00,CLR,,1.33,WeatherDisplay:10.37,2013-07-09 22:25:00,
2013-07-09 18:30:00,81.1,72.0,29.92,SW,233,13.0,13.0,74,0.00,CLR,,1.33,WeatherDisplay:10.37,2013-07-09 22:30:00,
2013-07-09 18:35:00,80.8,71.7,29.92,SW,234,11.5,11.5,74,0.00,CLR,,1.33,WeatherDisplay:10.37,2013-07-09 22:35:00,
2013-07-09 18:40:00,80.7,72.0,29.93,SW,214,12.0,12.0,75,0.00,CLR,,1.33,WeatherDisplay:10.37,2013-07-09 22:40:00,
2013-07-09 18:45:00,80.8,72.1,29.93,SW,216,15.0,15.0,75,0.00,CLR,,1.33,WeatherDisplay:10.37,2013-07-09 22:45:00,
2013-07-09 18:50:00,80.6,71.9,29.93,SW,223,11.5,11.5,75,0.00,CLR,,1.33,WeatherDisplay:10.37,2013-07-09 22:50:00,
2013-07-09 18:55:00,80.3,72.0,29.93,SW,231,12.0,12.0,76,0.00,CLR,,1.33,WeatherDisplay:10.37,2013-07-09 22:55:00,
2013-07-09 19:00:00,80.1,71.8,29.93,SSW,207,10.4,10.4,76,0.00,CLR,,1.33,WeatherDisplay:10.37,2013-07-09 23:00:00,
2013-07-09 19:05:00,80.0,71.8,29.93,SW,225,9.2,9.2,76,0.00,CLR,,1.33,WeatherDisplay:10.37,2013-07-09 23:05:00,
2013-07-09 19:10:00,79.9,71.7,29.92,West,261,12.0,12.0,76,0.00,CLR,,1.33,WeatherDisplay:10.37,2013-07-09 23:10:00,
2013-07-09 19:15:00,79.8,71.9,29.93,WSW,237,14.0,14.0,77,0.00,CLR,,1.33,WeatherDisplay:10.37,2013-07-09 23:15:00,
2013-07-09 19:20:00,79.7,71.8,29.93,SW,230,9.2,9.2,77,0.00,CLR,,1.33,WeatherDisplay:10.37,2013-07-09 23:20:00,
2013-07-09 19:25:00,79.6,71.8,29.93,WSW,257,10.4,10.4,77,0.00,CLR,,1.33,WeatherDisplay:10.37,2013-07-09 23:25:00,
2013-07-09 19:30:00,79.4,71.6,29.93,SW,232,8.0,8.0,77,0.00,CLR,,1.33,WeatherDisplay:10.37,2013-07-09 23:30:00,
2013-07-09 19:35:00,78.8,70.6,29.94,West,268,22.0,22.0,76,0.00,CLR,,1.33,WeatherDisplay:10.37,2013-07-09 23:35:00,
2013-07-09 19:40:00,78.2,68.4,29.93,West,271,21.9,21.9,72,0.00,CLR,,1.33,WeatherDisplay:10.37,2013-07-09 23:40:00,
2013-07-09 19:45:00,76.0,66.3,29.93,WNW,288,8.1,8.1,72,0.00,CLR,,1.33,WeatherDisplay:10.37,2013-07-09 23:45:00,
2013-07-09 19:50:00,74.3,65.9,29.94,West,268,6.9,6.9,75,0.00,CLR,,1.33,WeatherDisplay:10.37,2013-07-09 23:50:00,
2013-07-09 19:55:00,73.2,65.9,29.94,West,272,5.0,5.0,78,0.00,CLR,,1.33,WeatherDisplay:10.37,2013-07-09 23:55:00,
2013-07-09 20:00:00,72.8,65.5,29.94,South,180,0.0,0.0,78,0.00,CLR,,1.33,WeatherDisplay:10.37,2013-07-10 00:00:00,
2013-07-09 20:05:00,72.4,65.5,29.94,NW,311,2.3,2.3,79,0.00,CLR,,1.33,WeatherDisplay:10.37,2013-07-10 00:05:00,
2013-07-09 20:10:00,72.1,65.6,29.95,East,93,0.0,0.0,80,0.00,CLR,,1.33,WeatherDisplay:10.37,2013-07-10 00:10:00,
2013-07-09 20:15:00,71.6,65.5,29.95,East,92,0.0,0.0,81,0.00,CLR,,1.33,WeatherDisplay:10.37,2013-07-10 00:15:00,
2013-07-09 20:20:00,71.5,65.4,29.95,SW,221,1.2,1.2,81,0.00,CLR,,1.33,WeatherDisplay:10.37,2013-07-10 00:20:00,
2013-07-09 20:25:00,71.7,65.9,29.96,SW,221,0.0,0.0,82,0.00,CLR,,1.33,WeatherDisplay:10.37,2013-07-10 00:25:00,
2013-07-09 20:30:00,72.2,66.4,29.96,SW,218,3.5,3.5,82,0.00,CLR,,1.33,WeatherDisplay:10.37,2013-07-10 00:30:00,
2013-07-09 20:35:00,72.5,66.7,29.96,SW,236,6.0,6.0,82,0.00,CLR,,1.33,WeatherDisplay:10.37,2013-07-10 00:35:00,
2013-07-09 20:40:00,72.6,66.8,29.96,SW,236,8.0,8.0,82,0.00,CLR,,1.33,WeatherDisplay:10.37,2013-07-10 00:40:00,
2013-07-09 20:45:00,72.6,66.8,29.96,WSW,237,10.4,10.4,82,0.00,CLR,,1.33,WeatherDisplay:10.37,2013-07-10 00:45:00,
2013-07-09 20:50:00,72.8,67.0,29.96,SW,228,9.2,9.2,82,0.00,CLR,,1.33,WeatherDisplay:10.37,2013-07-10 00:50:00,
2013-07-09 20:55:00,72.8,67.0,29.96,SW,232,11.5,11.5,82,0.00,CLR,,1.33,WeatherDisplay:10.37,2013-07-10 00:55:00,
2013-07-09 21:00:00,72.8,67.0,29.95,WSW,240,10.4,10.4,82,0.00,CLR,,1.33,WeatherDisplay:10.37,2013-07-10 01:00:00,
2013-07-09 21:05:00,72.9,66.7,29.95,SW,236,10.4,10.4,81,0.00,CLR,,1.33,WeatherDisplay:10.37,2013-07-10 01:05:00,
2013-07-09 21:10:00,73.0,66.8,29.96,WSW,238,10.4,10.4,81,0.00,CLR,,1.33,WeatherDisplay:10.37,2013-07-10 01:10:00,
2013-07-09 21:15:00,73.2,67.0,29.96,WSW,254,8.0,8.0,81,0.00,CLR,,1.33,WeatherDisplay:10.37,2013-07-10 01:15:00,
2013-07-09 21:20:00,73.1,66.9,29.97,SW,224,11.0,11.0,81,0.00,CLR,,1.33,WeatherDisplay:10.37,2013-07-10 01:20:00,
2013-07-09 21:25:00,73.1,66.9,29.97,SW,232,10.4,10.4,81,0.00,CLR,,1.33,WeatherDisplay:10.37,2013-07-10 01:25:00,
2013-07-09 21:30:00,73.1,66.9,29.97,SW,235,9.2,9.2,81,0.00,CLR,,1.33,WeatherDisplay:10.37,2013-07-10 01:30:00,
2013-07-09 21:35:00,73.0,66.8,29.97,WSW,237,11.5,11.5,81,0.00,CLR,,1.33,WeatherDisplay:10.37,2013-07-10 01:35:00,
2013-07-09 21:40:00,73.0,66.8,29.98,SW,220,10.4,10.4,81,0.00,CLR,,1.33,WeatherDisplay:10.37,2013-07-10 01:40:00,
2013-07-09 21:45:00,73.0,66.8,29.98,WSW,241,11.5,11.5,81,0.00,CLR,,1.33,WeatherDisplay:10.37,2013-07-10 01:45:00,
2013-07-09 21:50:00,72.9,66.7,29.98,SW,217,9.0,9.0,81,0.00,CLR,,1.33,WeatherDisplay:10.37,2013-07-10 01:50:00,
2013-07-09 21:55:00,72.7,66.5,29.98,SW,224,9.2,9.2,81,0.00,CLR,,1.33,WeatherDisplay:10.37,2013-07-10 01:55:00,
2013-07-09 22:00:00,72.6,66.4,29.98,WSW,245,9.0,9.0,81,0.00,CLR,,1.33,WeatherDisplay:10.37,2013-07-10 02:00:00,
2013-07-09 22:05:00,72.4,66.6,29.98,SW,219,11.0,11.0,82,0.00,CLR,,1.33,WeatherDisplay:10.37,2013-07-10 02:05:00,
2013-07-09 22:10:00,72.2,66.4,29.97,SSW,213,10.0,10.0,82,0.00,CLR,,1.33,WeatherDisplay:10.37,2013-07-10 02:10:00,
2013-07-09 22:15:00,72.0,66.2,29.97,SW,218,8.1,8.1,82,0.00,CLR,,1.33,WeatherDisplay:10.37,2013-07-10 02:15:00,
2013-07-09 22:20:00,71.8,66.0,29.97,SW,225,9.2,9.2,82,0.00,CLR,,1.33,WeatherDisplay:10.37,2013-07-10 02:20:00,
2013-07-09 22:25:00,71.6,66.2,29.98,SW,223,11.5,11.5,83,0.00,CLR,,1.33,WeatherDisplay:10.37,2013-07-10 02:25:00,
2013-07-09 22:30:00,71.6,66.2,29.98,SSW,205,10.0,10.0,83,0.00,CLR,,1.33,WeatherDisplay:10.37,2013-07-10 02:30:00,
2013-07-09 22:35:00,71.5,66.1,29.98,WSW,240,11.0,11.0,83,0.00,CLR,,1.33,WeatherDisplay:10.37,2013-07-10 02:35:00,
2013-07-09 22:40:00,71.3,65.9,29.98,WSW,256,9.2,9.2,83,0.00,CLR,,1.33,WeatherDisplay:10.37,2013-07-10 02:40:00,
2013-07-09 22:45:00,71.3,66.2,29.98,SW,225,9.2,9.2,84,0.00,CLR,,1.33,WeatherDisplay:10.37,2013-07-10 02:45:00,
2013-07-09 22:50:00,71.3,66.2,29.98,SW,230,11.5,11.5,84,0.00,CLR,,1.33,WeatherDisplay:10.37,2013-07-10 02:50:00,
2013-07-09 22:55:00,71.3,66.2,29.98,SW,232,13.8,13.8,84,0.00,CLR,,1.33,WeatherDisplay:10.37,2013-07-10 02:55:00,
2013-07-09 23:00:00,71.3,66.2,29.98,WSW,238,9.2,9.2,84,0.00,CLR,,1.33,WeatherDisplay:10.37,2013-07-10 03:00:00,
2013-07-09 23:05:00,71.3,66.2,29.98,West,267,11.5,11.5,84,0.00,CLR,,1.33,WeatherDisplay:10.37,2013-07-10 03:05:00,
2013-07-09 23:10:00,71.3,66.2,29.97,SW,217,10.4,10.4,84,0.00,CLR,,1.33,WeatherDisplay:10.37,2013-07-10 03:10:00,
2013-07-09 23:15:00,71.3,66.2,29.97,SW,235,8.1,8.1,84,0.00,CLR,,1.33,WeatherDisplay:10.37,2013-07-10 03:15:00,
2013-07-09 23:20:00,71.3,66.2,29.97,WSW,245,7.0,7.0,84,0.00,CLR,,1.33,WeatherDisplay:10.37,2013-07-10 03:20:00,
2013-07-09 23:25:00,71.3,66.2,29.97,SW,232,10.4,10.4,84,0.00,CLR,,1.33,WeatherDisplay:10.37,2013-07-10 03:25:00,
2013-07-09 23:30:00,71.2,66.1,29.97,SW,219,8.1,8.1,84,0.00,CLR,,1.33,WeatherDisplay:10.37,2013-07-10 03:30:00,
2013-07-09 23:35:00,71.1,66.0,29.97,SSW,212,10.4,10.4,84,0.00,CLR,,1.33,WeatherDisplay:10.37,2013-07-10 03:35:00,
2013-07-09 23:40:00,70.9,65.8,29.97,WSW,239,10.0,10.0,84,0.01,RA,,1.34,WeatherDisplay:10.37,2013-07-10 03:40:00,
2013-07-09 23:45:00,70.7,65.6,29.97,SW,234,11.5,11.5,84,0.01,RA,,1.34,WeatherDisplay:10.37,2013-07-10 03:45:00,
2013-07-09 23:50:00,70.5,65.8,29.97,WSW,257,11.5,11.5,85,0.02,RA,,1.35,WeatherDisplay:10.37,2013-07-10 03:50:00,
2013-07-09 23:55:00,70.4,65.7,29.97,WSW,242,12.7,12.7,85,0.03,RA,,1.36,WeatherDisplay:10.37,2013-07-10 03:55:00,